Time;durP1;ratioP1;P1;durP2;ratioP2;P2;SDS_P1;SDS_P2;PMS_P1;PMS_P2;Temp;Humidity;BMP_temperature;BMP_pressure;BME280_temperature;BME280_humidity;BME280_pressure;Samples;Min_cycle;Max_cycle;Signal;HPM_P1;HPM_P2
2022/01/20 00:01:46;;;;;;;2.79;2.44;;;;;;;3.56;97.95;100121.31;2020223;78;24084;-72
2022/01/20 00:05:06;;;;;;;5.07;3.04;;;;;;;3.58;97.94;100126.50;2017029;80;20834;-72
2022/01/20 00:23:10;;;;;;;3.06;2.22;;;;;;;3.58;98.02;100135.09;2021866;80;20055;-72
2022/01/20 00:28:19;;;;;;;3.41;2.46;;;;;;;3.60;98.02;100146.31;2016385;80;20367;-72
2022/01/20 00:34:36;;;;;;;3.44;2.26;;;;;;;3.59;98.42;100144.56;2084138;69;20349;-71
2022/01/20 00:37:39;;;;;;;2.45;2.08;;;;;;;3.63;98.58;100146.41;2018156;80;20325;-71
2022/01/20 00:40:42;;;;;;;2.74;2.28;;;;;;;3.64;98.55;100137.88;2018179;80;20861;-71
2022/01/20 00:43:45;;;;;;;2.39;2.10;;;;;;;3.66;98.53;100140.50;2018319;80;21093;-71
2022/01/20 00:46:48;;;;;;;2.34;2.08;;;;;;;3.66;98.52;100144.78;2016235;77;20855;-71
2022/01/20 00:49:50;;;;;;;2.64;2.06;;;;;;;3.66;98.63;100148.22;2017338;80;20447;-71
2022/01/20 00:52:53;;;;;;;2.84;2.24;;;;;;;3.68;98.79;100150.84;2018367;80;20482;-72
2022/01/20 00:55:56;;;;;;;2.67;2.33;;;;;;;3.70;98.82;100164.59;2017569;80;20394;-71
2022/01/20 00:58:59;;;;;;;2.75;2.19;;;;;;;3.73;98.87;100167.28;2017745;80;20439;-72
2022/01/20 01:02:05;;;;;;;3.30;2.42;;;;;;;3.74;98.76;100163.88;2015701;78;39271;-71
2022/01/20 01:05:10;;;;;;;2.61;2.16;;;;;;;3.77;98.76;100166.56;2017816;80;20310;-71
2022/01/20 01:08:13;;;;;;;3.91;2.30;;;;;;;3.78;98.81;100160.63;2017725;80;21174;-72
2022/01/20 01:11:17;;;;;;;3.69;2.30;;;;;;;3.79;98.65;100163.25;2017774;80;20413;-72
2022/01/20 01:14:21;;;;;;;2.69;2.38;;;;;;;3.76;98.61;100160.53;2017598;80;20321;-72
2022/01/20 01:20:29;;;;;;;3.67;2.56;;;;;;;3.70;98.71;100178.31;2017999;80;20411;-71
2022/01/20 01:23:36;;;;;;;3.63;2.49;;;;;;;3.70;98.91;100169.72;2017519;80;20359;-71
2022/01/20 01:26:39;;;;;;;4.13;3.00;;;;;;;3.72;99.03;100163.81;2016925;80;20748;-72
2022/01/20 01:32:53;;;;;;;3.19;2.64;;;;;;;3.73;98.82;100167.28;2015807;77;24463;-71
2022/01/20 01:35:58;;;;;;;6.00;3.22;;;;;;;3.74;98.85;100169.88;2018387;80;20304;-72
2022/01/20 01:39:01;;;;;;;5.19;3.14;;;;;;;3.76;98.81;100167.38;2017446;80;20321;-71
2022/01/20 01:42:03;;;;;;;4.29;3.49;;;;;;;3.78;98.93;100170.91;2018128;80;20321;-71
2022/01/20 01:45:13;;;;;;;5.49;3.26;;;;;;;3.78;98.75;100173.47;2016295;80;20751;-72
2022/01/20 01:48:16;;;;;;;4.03;3.22;;;;;;;3.80;98.78;100161.53;2016586;80;21252;-71
2022/01/20 01:51:18;;;;;;;4.22;3.47;;;;;;;3.81;98.75;100160.72;2018233;80;20339;-72
2022/01/20 01:54:21;;;;;;;4.10;3.33;;;;;;;3.81;98.67;100168.44;2017903;80;20313;-72
2022/01/20 01:57:26;;;;;;;4.81;3.63;;;;;;;3.81;98.62;100164.16;2017768;80;20317;-72
2022/01/20 02:00:30;;;;;;;4.99;3.84;;;;;;;3.82;98.58;100173.63;2015117;78;35304;-71
2022/01/20 02:03:42;;;;;;;4.59;3.88;;;;;;;3.80;98.51;100184.66;2016765;80;20289;-72
2022/01/20 02:07:14;;;;;;;4.57;3.90;;;;;;;3.81;98.56;100188.97;2017834;80;20451;-72
2022/01/20 02:20:14;;;;;;;4.39;3.95;;;;;;;3.75;98.44;100196.44;2017522;80;20329;-72
2022/01/20 02:23:17;;;;;;;5.13;4.18;;;;;;;3.73;98.37;100190.38;2018294;80;20414;-72
2022/01/20 02:26:19;;;;;;;6.38;4.22;;;;;;;3.69;98.34;100186.84;2017658;80;21390;-72
2022/01/20 02:29:22;;;;;;;7.93;5.11;;;;;;;3.69;98.38;100179.13;2018165;80;20374;-72
2022/01/20 02:32:29;;;;;;;6.95;5.53;;;;;;;3.66;98.29;100184.16;2016449;77;20459;-72
2022/01/20 02:35:35;;;;;;;6.97;4.94;;;;;;;3.67;98.45;100190.19;2018633;80;20419;-72
2022/01/20 02:38:44;;;;;;;7.99;5.39;;;;;;;3.67;98.42;100188.47;2017365;80;20348;-72
2022/01/20 02:45:09;;;;;;;6.71;5.10;;;;;;;3.69;98.63;100185.97;2016132;80;20876;-72
2022/01/20 02:48:13;;;;;;;7.05;5.44;;;;;;;3.67;98.53;100188.47;2017520;78;20615;-70
2022/01/20 02:51:15;;;;;;;9.70;5.63;;;;;;;3.68;98.75;100179.97;2017600;80;20338;-70
2022/01/20 02:54:19;;;;;;;9.32;6.88;;;;;;;3.72;98.90;100186.06;2017488;80;20336;-70
2022/01/20 02:57:23;;;;;;;8.70;6.01;;;;;;;3.74;98.79;100184.44;2017458;80;20326;-70
2022/01/20 03:00:26;;;;;;;8.29;6.32;;;;;;;3.75;98.88;100175.91;2015507;77;22038;-70
2022/01/20 03:03:29;;;;;;;10.00;7.30;;;;;;;3.72;98.85;100166.41;2018995;80;20452;-71
2022/01/20 03:06:32;;;;;;;6.44;5.71;;;;;;;3.75;98.97;100170.75;2019177;80;20304;-71
2022/01/20 03:09:35;;;;;;;9.15;7.14;;;;;;;3.77;98.98;100180.28;2019054;80;20393;-71
2022/01/20 03:12:38;;;;;;;8.91;5.86;;;;;;;3.79;98.81;100180.34;2019851;80;20828;-71
2022/01/20 03:15:42;;;;;;;8.64;5.99;;;;;;;3.76;98.43;100180.22;2017151;78;20425;-71
2022/01/20 03:18:45;;;;;;;7.25;5.61;;;;;;;3.71;98.36;100197.16;2019114;80;20884;-71
2022/01/20 03:21:48;;;;;;;7.49;6.18;;;;;;;3.64;98.19;100202.09;2019265;80;20297;-70
2022/01/20 03:24:51;;;;;;;6.46;5.19;;;;;;;3.57;98.13;100197.53;2018841;80;20374;-71
2022/01/20 03:27:55;;;;;;;7.75;5.38;;;;;;;3.53;98.08;100194.81;2019047;80;20360;-71
2022/01/20 03:30:57;;;;;;;8.21;5.66;;;;;;;3.45;97.91;100202.25;2017554;78;23179;-71
2022/01/20 03:34:00;;;;;;;8.19;5.20;;;;;;;3.39;97.78;100190.84;2019184;80;20340;-71
2022/01/20 03:37:07;;;;;;;13.46;5.22;;;;;;;3.30;97.75;100193.97;2019121;80;20318;-71
2022/01/20 03:40:11;;;;;;;7.04;5.18;;;;;;;3.18;97.51;100185.78;2019103;80;20339;-71
2022/01/20 03:43:13;;;;;;;6.99;4.95;;;;;;;3.07;97.32;100192.22;2018935;80;20869;-71
2022/01/20 03:46:17;;;;;;;8.18;6.04;;;;;;;2.94;97.07;100198.56;2017520;77;20657;-71
2022/01/20 03:49:35;;;;;;;7.86;5.65;;;;;;;2.82;97.18;100204.09;2018938;80;20317;-71
2022/01/20 03:52:38;;;;;;;9.08;5.03;;;;;;;2.72;97.18;100205.41;2020082;80;20338;-70
2022/01/20 03:55:41;;;;;;;7.21;4.86;;;;;;;2.62;97.09;100207.53;2019657;80;20168;-70
2022/01/20 03:58:44;;;;;;;9.38;5.68;;;;;;;2.51;96.96;100201.09;2020282;80;20333;-70
2022/01/20 04:01:47;;;;;;;7.80;4.90;;;;;;;2.41;97.02;100213.56;2017859;77;20886;-71
2022/01/20 04:04:49;;;;;;;9.31;4.86;;;;;;;2.29;96.80;100219.84;2018803;80;20772;-71
2022/01/20 04:07:52;;;;;;;6.93;4.88;;;;;;;2.19;96.69;100225.41;2019485;80;20337;-71
2022/01/20 04:10:55;;;;;;;6.20;4.41;;;;;;;2.13;96.90;100215.75;2018200;80;20313;-71
2022/01/20 04:13:58;;;;;;;9.30;5.70;;;;;;;2.07;96.78;100221.50;2018803;80;20316;-71
2022/01/20 04:17:04;;;;;;;7.07;4.86;;;;;;;2.00;96.74;100223.75;2016932;77;20359;-71
2022/01/20 04:20:07;;;;;;;7.14;4.81;;;;;;;1.92;96.72;100225.97;2019108;80;20786;-71
2022/01/20 04:23:10;;;;;;;8.61;5.40;;;;;;;1.83;96.68;100230.69;2018077;80;20351;-71
2022/01/20 04:26:12;;;;;;;8.36;4.80;;;;;;;1.74;96.64;100220.91;2018333;80;20340;-71
2022/01/20 04:29:16;;;;;;;7.22;5.11;;;;;;;1.68;96.52;100227.47;2018262;80;20635;-71
2022/01/20 04:32:19;;;;;;;9.06;5.03;;;;;;;1.58;96.15;100230.41;2016827;77;21061;-71
2022/01/20 04:35:22;;;;;;;7.24;5.11;;;;;;;1.49;96.27;100229.19;2018993;80;20309;-71
2022/01/20 04:38:25;;;;;;;6.55;4.70;;;;;;;1.42;96.20;100239.06;2018396;80;20297;-71
2022/01/20 04:41:31;;;;;;;6.82;4.95;;;;;;;1.37;96.34;100238.00;2018088;80;20329;-71
2022/01/20 04:44:57;;;;;;;7.82;5.14;;;;;;;1.30;96.22;100248.75;2018388;80;20301;-71
2022/01/20 04:48:17;;;;;;;6.26;4.31;;;;;;;1.23;96.28;100245.03;2010800;78;20624;-71
2022/01/20 04:58:04;;;;;;;8.35;4.99;;;;;;;1.01;96.14;100225.25;2013286;80;20402;-70
2022/01/20 05:01:07;;;;;;;6.54;4.97;;;;;;;0.94;96.12;100227.47;2012784;77;22713;-71
2022/01/20 05:04:10;;;;;;;7.40;5.14;;;;;;;0.88;96.22;100236.56;2018947;80;20439;-71
2022/01/20 05:07:20;;;;;;;8.77;5.08;;;;;;;0.85;96.33;100226.22;2018554;80;20310;-71
2022/01/20 05:10:23;;;;;;;7.71;4.96;;;;;;;0.79;96.36;100212.28;2018150;80;20171;-71
2022/01/20 05:13:37;;;;;;;6.49;4.78;;;;;;;0.68;96.06;100224.53;2018335;80;20444;-71
2022/01/20 05:16:40;;;;;;;8.36;4.99;;;;;;;0.61;96.07;100227.59;2016462;77;21578;-70
2022/01/20 05:19:42;;;;;;;12.79;5.07;;;;;;;0.55;96.28;100220.53;2017946;80;20454;-70
2022/01/20 05:22:45;;;;;;;7.40;4.98;;;;;;;0.52;96.46;100222.03;2018103;80;20363;-70
2022/01/20 05:25:48;;;;;;;7.27;4.99;;;;;;;0.43;96.14;100214.81;2018065;80;20766;-70
2022/01/20 05:28:50;;;;;;;8.09;5.13;;;;;;;0.34;96.12;100214.34;2018504;80;20175;-71
2022/01/20 05:31:54;;;;;;;6.95;4.35;;;;;;;0.30;96.45;100218.44;2017042;78;21984;-70
2022/01/20 05:34:57;;;;;;;8.33;4.98;;;;;;;0.27;96.53;100214.84;2021011;80;20949;-71
2022/01/20 05:37:59;;;;;;;7.96;5.47;;;;;;;0.23;96.47;100228.28;2023252;80;20171;-71
2022/01/20 05:41:02;;;;;;;9.71;5.44;;;;;;;0.19;96.51;100234.03;2023519;80;20760;-71
2022/01/20 05:44:05;;;;;;;7.56;4.80;;;;;;;0.15;96.54;100238.09;2019111;80;20348;-71
2022/01/20 05:47:11;;;;;;;7.37;5.18;;;;;;;0.13;96.55;100234.59;2021917;77;20226;-72
2022/01/20 05:50:20;;;;;;;10.21;5.24;;;;;;;0.11;96.57;100242.97;2023336;80;20332;-72
2022/01/20 05:53:22;;;;;;;8.64;4.68;;;;;;;0.10;96.61;100238.66;2023396;80;20182;-71
2022/01/20 05:56:25;;;;;;;8.76;4.40;;;;;;;0.05;96.53;100238.44;2023752;80;20218;-71
2022/01/20 05:59:27;;;;;;;9.19;4.99;;;;;;;0.05;96.65;100241.00;2023710;80;20901;-72
2022/01/20 06:02:35;;;;;;;10.44;4.39;;;;;;;0.01;96.62;100244.19;2021701;78;23510;-72
2022/01/20 06:05:38;;;;;;;10.21;4.93;;;;;;;-0.04;96.56;100246.50;2023150;80;20232;-71
2022/01/20 06:08:41;;;;;;;6.32;3.98;;;;;;;-0.09;96.46;100250.50;2023522;80;20231;-72
2022/01/20 06:11:44;;;;;;;9.96;4.20;;;;;;;-0.13;96.57;100256.25;2023515;80;20249;-71
2022/01/20 06:14:47;;;;;;;11.73;3.87;;;;;;;-0.13;96.72;100252.81;2022809;80;21213;-71
2022/01/20 06:17:49;;;;;;;10.88;4.24;;;;;;;-0.18;96.64;100266.97;2017542;77;21155;-71
2022/01/20 06:20:52;;;;;;;9.62;4.69;;;;;;;-0.20;96.83;100271.13;2018791;80;20211;-71
2022/01/20 06:23:55;;;;;;;7.47;3.59;;;;;;;-0.22;96.99;100271.06;2017747;80;20180;-72
2022/01/20 06:26:58;;;;;;;9.19;4.46;;;;;;;-0.23;97.08;100265.88;2018405;80;20745;-71
2022/01/20 06:30:01;;;;;;;6.49;3.52;;;;;;;-0.27;96.94;100257.19;2017875;80;21046;-71
2022/01/20 06:33:04;;;;;;;7.76;3.34;;;;;;;-0.36;96.86;100262.69;2016929;77;20545;-71
2022/01/20 06:36:07;;;;;;;7.34;3.34;;;;;;;-0.39;96.98;100265.06;2017761;80;20167;-71
2022/01/20 06:39:09;;;;;;;6.88;3.27;;;;;;;-0.40;97.09;100262.44;2018527;80;20228;-71
2022/01/20 06:42:12;;;;;;;7.88;3.30;;;;;;;-0.46;97.08;100262.13;2018225;80;20201;-71
2022/01/20 06:45:17;;;;;;;9.13;3.56;;;;;;;-0.45;97.32;100267.31;2016481;80;20180;-71
2022/01/20 06:48:20;;;;;;;10.51;4.50;;;;;;;-0.46;97.34;100274.88;2023692;80;20236;-68
2022/01/20 06:51:22;;;;;;;8.27;3.60;;;;;;;-0.48;97.36;100281.56;2022413;80;20163;-68
2022/01/20 06:54:25;;;;;;;7.14;3.87;;;;;;;-0.51;97.25;100279.75;2022459;80;20252;-71
2022/01/20 06:57:28;;;;;;;9.72;4.02;;;;;;;-0.49;97.62;100282.38;2023474;80;20786;-71
2022/01/20 07:00:30;;;;;;;12.48;4.90;;;;;;;-0.48;97.68;100289.22;2021413;77;42810;-71
2022/01/20 07:03:33;;;;;;;10.20;4.17;;;;;;;-0.46;97.71;100297.84;2019570;80;20179;-71
2022/01/20 07:06:37;;;;;;;7.87;3.81;;;;;;;-0.48;97.62;100294.31;2023102;80;20730;-71
2022/01/20 07:09:40;;;;;;;10.02;5.30;;;;;;;-0.48;97.60;100292.66;2023000;80;20163;-71
2022/01/20 07:12:44;;;;;;;10.58;4.31;;;;;;;-0.46;97.91;100300.38;2023067;80;20201;-71
2022/01/20 07:15:46;;;;;;;10.22;4.14;;;;;;;-0.48;97.90;100302.84;2020618;77;20555;-71
2022/01/20 07:18:51;;;;;;;13.13;4.43;;;;;;;-0.45;98.13;100299.59;2020792;80;20205;-71
2022/01/20 07:21:54;;;;;;;8.60;3.82;;;;;;;-0.42;98.25;100308.28;2020805;80;20693;-71
2022/01/20 07:24:57;;;;;;;11.93;4.22;;;;;;;-0.39;98.29;100299.91;2017109;80;20163;-71
2022/01/20 07:27:59;;;;;;;11.01;3.97;;;;;;;-0.33;98.57;100313.00;2021353;80;20977;-72
2022/01/20 07:31:07;;;;;;;8.40;3.71;;;;;;;-0.23;98.77;100325.44;2019817;77;21750;-72
2022/01/20 07:34:11;;;;;;;11.22;4.76;;;;;;;-0.17;98.81;100328.34;2021289;80;20204;-70
2022/01/20 07:37:13;;;;;;;9.36;4.46;;;;;;;-0.13;98.85;100345.56;2020838;80;20834;-70
2022/01/20 07:40:16;;;;;;;10.68;4.57;;;;;;;-0.09;98.87;100342.38;2021089;80;20191;-69
2022/01/20 07:43:19;;;;;;;15.12;4.99;;;;;;;-0.06;98.84;100349.31;2020666;80;20188;-69
2022/01/20 07:46:22;;;;;;;16.16;5.19;;;;;;;-0.02;99.00;100343.56;2018941;77;28936;-73
2022/01/20 07:49:25;;;;;;;12.49;5.10;;;;;;;0.07;99.16;100355.97;2021430;80;20653;-69
2022/01/20 07:52:28;;;;;;;12.57;5.44;;;;;;;0.12;99.20;100352.84;2020823;80;20607;-70
2022/01/20 07:55:31;;;;;;;12.20;5.37;;;;;;;0.21;99.41;100360.13;2021149;80;20630;-69
2022/01/20 07:58:35;;;;;;;15.13;5.82;;;;;;;0.30;99.48;100355.47;2021646;80;20608;-69
2022/01/20 08:01:38;;;;;;;14.32;6.20;;;;;;;0.40;99.51;100372.16;2019132;78;22127;-68
2022/01/20 08:04:41;;;;;;;14.21;5.09;;;;;;;0.47;99.67;100374.22;2021143;80;20183;-68
2022/01/20 08:07:43;;;;;;;15.26;5.11;;;;;;;0.52;99.65;100370.22;2017607;80;21248;-68
2022/01/20 08:10:47;;;;;;;11.45;5.39;;;;;;;0.59;99.82;100369.75;2020951;80;20415;-68
2022/01/20 08:13:50;;;;;;;13.61;5.38;;;;;;;0.67;99.94;100365.88;2020826;80;20363;-68
2022/01/20 08:16:52;;;;;;;17.75;5.03;;;;;;;0.74;99.85;100375.63;2019418;77;21180;-68
2022/01/20 08:19:55;;;;;;;13.23;4.88;;;;;;;0.83;100.00;100367.53;2021235;80;20320;-72
2022/01/20 08:22:58;;;;;;;15.21;5.38;;;;;;;0.88;99.96;100368.63;2021775;80;20358;-69
2022/01/20 08:26:02;;;;;;;15.55;5.24;;;;;;;0.94;99.97;100381.75;2021431;80;20320;-69
2022/01/20 08:29:05;;;;;;;16.69;5.04;;;;;;;0.98;99.91;100382.75;2020845;80;21102;-69
2022/01/20 08:32:08;;;;;;;13.51;4.65;;;;;;;1.05;99.99;100379.69;2011474;80;21313;-70
2022/01/20 08:35:12;;;;;;;13.34;4.61;;;;;;;1.12;99.98;100376.66;2015376;80;20715;-72
2022/01/20 08:38:15;;;;;;;14.75;5.00;;;;;;;1.19;100.00;100381.25;2016568;80;20333;-72
2022/01/20 08:41:18;;;;;;;16.40;4.71;;;;;;;1.27;100.00;100387.63;2016567;80;20868;-69
2022/01/20 08:44:20;;;;;;;17.40;5.19;;;;;;;1.39;100.00;100390.78;2016765;80;20806;-69
2022/01/20 08:47:23;;;;;;;12.56;4.59;;;;;;;1.49;100.00;100395.53;2014895;77;20495;-69
2022/01/20 08:50:28;;;;;;;17.08;4.84;;;;;;;1.58;100.00;100386.53;2018177;80;21045;-71
2022/01/20 08:53:31;;;;;;;18.31;5.43;;;;;;;1.70;100.00;100387.13;2018532;80;20498;-71
2022/01/20 08:56:37;;;;;;;14.39;4.21;;;;;;;1.80;100.00;100386.75;2018576;80;20325;-71
2022/01/20 08:59:42;;;;;;;15.61;4.21;;;;;;;1.88;100.00;100384.53;2013973;80;20309;-71
2022/01/20 09:02:44;;;;;;;16.31;4.34;;;;;;;1.94;100.00;100392.47;2016654;77;21688;-71
2022/01/20 09:05:48;;;;;;;16.67;4.70;;;;;;;2.01;100.00;100397.09;2017551;80;20330;-71
2022/01/20 09:08:51;;;;;;;14.65;4.14;;;;;;;2.06;100.00;100390.50;2014669;80;20322;-71
2022/01/20 09:15:28;;;;;;;12.84;3.97;;;;;;;2.12;99.79;100395.88;2008427;77;20410;-71
2022/01/20 09:18:31;;;;;;;14.06;4.16;;;;;;;2.09;99.48;100403.44;2019019;80;20333;-72
2022/01/20 09:21:34;;;;;;;16.74;3.69;;;;;;;2.06;99.34;100403.31;2018064;80;20301;-72
2022/01/20 09:24:37;;;;;;;15.20;3.72;;;;;;;2.18;99.84;100403.88;2018582;80;20344;-72
2022/01/20 09:27:39;;;;;;;15.00;3.71;;;;;;;2.55;100.00;100392.69;2018072;80;20338;-72
2022/01/20 09:30:45;;;;;;;8.32;3.55;;;;;;;2.85;100.00;100396.53;2016518;77;27920;-73
2022/01/20 09:33:47;;;;;;;12.21;4.10;;;;;;;3.11;99.25;100386.50;2015083;80;21297;-70
2022/01/20 09:36:51;;;;;;;13.19;3.17;;;;;;;3.43;98.95;100388.72;2011528;80;20387;-71
2022/01/20 09:39:54;;;;;;;9.10;2.71;;;;;;;3.69;97.34;100391.41;2011852;80;21142;-71
2022/01/20 09:42:57;;;;;;;9.25;2.70;;;;;;;4.01;96.94;100384.94;2011897;80;20343;-74
2022/01/20 09:45:59;;;;;;;11.00;2.01;;;;;;;4.32;95.38;100390.41;2008447;78;21548;-74
2022/01/20 09:49:03;;;;;;;11.10;2.72;;;;;;;4.53;93.52;100400.59;2009782;80;20338;-74
2022/01/20 09:52:05;;;;;;;7.19;2.24;;;;;;;4.74;91.71;100398.78;2010962;80;20352;-74
2022/01/20 09:55:09;;;;;;;8.84;2.49;;;;;;;4.82;90.70;100399.91;2010449;80;20322;-74
2022/01/20 09:58:13;;;;;;;7.88;1.91;;;;;;;4.98;89.38;100392.72;2011010;80;20330;-74
2022/01/20 10:01:36;;;;;;;4.85;1.80;;;;;;;5.11;87.08;100393.19;2005996;77;22099;-72
2022/01/20 10:04:41;;;;;;;7.70;1.95;;;;;;;5.29;86.14;100404.94;2011327;80;20370;-72
2022/01/20 10:07:44;;;;;;;6.57;1.92;;;;;;;5.43;85.34;100424.28;2012381;80;20334;-72
2022/01/20 10:10:54;;;;;;;7.43;1.61;;;;;;;5.69;84.82;100412.22;2011158;80;20366;-71
2022/01/20 10:14:00;;;;;;;5.13;1.69;;;;;;;5.88;83.91;100411.97;2011449;80;20412;-74
2022/01/20 10:17:17;;;;;;;6.16;1.56;;;;;;;5.89;83.39;100415.41;2009437;77;20855;-74
2022/01/20 10:20:20;;;;;;;6.59;1.60;;;;;;;5.91;83.13;100413.78;2010387;80;20704;-75
2022/01/20 10:23:26;;;;;;;7.45;1.71;;;;;;;5.88;82.64;100422.28;2011672;80;20990;-74
2022/01/20 10:26:29;;;;;;;7.69;1.34;;;;;;;5.76;81.88;100425.38;2011287;80;21011;-75
2022/01/20 10:29:32;;;;;;;6.05;1.40;;;;;;;5.70;82.58;100417.44;2011151;80;20434;-75
2022/01/20 10:32:56;;;;;;;6.89;1.42;;;;;;;5.56;82.85;100426.41;2014237;78;24601;-74
2022/01/20 10:36:06;;;;;;;7.46;1.11;;;;;;;5.44;82.77;100423.47;2017080;80;21196;-74
2022/01/20 10:39:09;;;;;;;4.11;1.20;;;;;;;5.32;83.23;100426.50;2016495;80;20313;-75
2022/01/20 10:42:20;;;;;;;5.00;1.67;;;;;;;5.16;83.43;100437.97;2016833;80;20305;-74
2022/01/20 10:45:28;;;;;;;6.70;1.15;;;;;;;5.01;82.88;100439.16;2014328;80;20380;-74
2022/01/20 10:48:30;;;;;;;4.14;1.43;;;;;;;4.93;83.33;100445.72;2011296;80;20441;-74
2022/01/20 10:51:33;;;;;;;3.28;1.23;;;;;;;4.81;83.68;100443.59;2011018;80;20631;-74
2022/01/20 10:54:42;;;;;;;3.16;1.16;;;;;;;4.76;84.21;100442.56;2011918;80;21149;-74
2022/01/20 10:57:45;;;;;;;5.82;1.20;;;;;;;4.68;84.58;100439.72;2011584;80;20428;-74
2022/01/20 11:00:51;;;;;;;5.11;0.98;;;;;;;4.66;84.95;100423.34;2010027;77;20819;-74
2022/01/20 11:03:54;;;;;;;5.36;1.23;;;;;;;4.65;85.82;100421.59;2010230;80;20330;-74
2022/01/20 11:07:02;;;;;;;4.29;0.98;;;;;;;4.72;86.29;100417.56;2010977;80;21128;-74
2022/01/20 11:10:11;;;;;;;6.55;1.10;;;;;;;4.80;86.66;100419.56;2011350;80;20345;-74
2022/01/20 11:13:16;;;;;;;5.94;1.74;;;;;;;4.81;86.41;100417.88;2010371;80;21251;-75
2022/01/20 11:16:21;;;;;;;3.95;1.00;;;;;;;4.84;86.42;100410.25;2009869;77;23025;-74
2022/01/20 11:19:25;;;;;;;3.11;0.80;;;;;;;4.89;86.44;100410.44;2010589;80;20350;-76
2022/01/20 11:22:28;;;;;;;4.86;1.02;;;;;;;4.91;86.05;100406.22;2011305;80;20826;-77
2022/01/20 11:25:35;;;;;;;3.81;0.70;;;;;;;4.85;85.57;100405.19;2011464;80;20355;-77
2022/01/20 11:28:38;;;;;;;2.95;0.90;;;;;;;4.89;85.37;100408.72;2011307;80;20391;-77
2022/01/20 11:31:40;;;;;;;2.85;0.65;;;;;;;5.00;85.43;100407.38;2009802;77;23592;-77
2022/01/20 11:35:04;;;;;;;2.58;0.65;;;;;;;5.20;85.08;100402.03;2011669;80;20805;-77
2022/01/20 11:38:09;;;;;;;4.41;0.82;;;;;;;5.31;84.06;100414.44;2011049;80;20438;-77
2022/01/20 11:41:14;;;;;;;4.81;0.69;;;;;;;5.30;82.84;100410.13;2010599;80;20330;-77
2022/01/20 11:44:19;;;;;;;1.79;0.50;;;;;;;5.31;82.92;100421.28;2011174;80;20383;-77
2022/01/20 11:47:31;;;;;;;2.45;0.63;;;;;;;5.29;81.72;100421.25;2009368;77;24404;-77
2022/01/20 11:50:34;;;;;;;2.55;0.61;;;;;;;5.19;80.10;100437.19;2007030;80;21041;-77
2022/01/20 11:53:41;;;;;;;1.30;0.40;;;;;;;5.14;80.69;100438.75;2010844;80;21256;-79
2022/01/20 11:56:44;;;;;;;3.25;0.51;;;;;;;5.10;81.33;100442.06;2014480;80;20458;-81
2022/01/20 11:59:56;;;;;;;2.35;0.30;;;;;;;4.97;80.42;100442.44;2018162;80;21155;-81
2022/01/20 12:03:09;;;;;;;1.42;0.40;;;;;;;4.83;80.01;100434.22;2013757;77;23574;-81
2022/01/20 12:06:14;;;;;;;0.88;0.30;;;;;;;4.77;80.24;100439.16;2008474;80;20350;-78
2022/01/20 12:09:33;;;;;;;1.15;0.30;;;;;;;4.76;80.10;100435.72;2011867;80;20319;-78
2022/01/20 12:12:39;;;;;;;3.10;0.43;;;;;;;4.79;80.07;100429.81;2012293;80;20881;-78
2022/01/20 12:15:53;;;;;;;1.21;0.45;;;;;;;4.87;80.23;100432.66;2011028;78;23830;-76
2022/01/20 12:18:58;;;;;;;2.58;0.50;;;;;;;4.98;79.49;100441.63;2012226;80;20310;-75
2022/01/20 12:22:03;;;;;;;4.45;0.50;;;;;;;4.95;75.62;100437.25;2012180;80;20410;-76
2022/01/20 12:25:07;;;;;;;3.08;1.05;;;;;;;4.98;75.53;100437.34;2012342;80;20777;-76
2022/01/20 12:28:16;;;;;;;3.79;0.60;;;;;;;4.97;74.47;100447.59;2012000;80;20351;-73
2022/01/20 12:31:19;;;;;;;;;;;;;;;5.01;74.84;100441.72;2011513;78;21520;-75
2022/01/20 12:34:22;;;;;;;5.94;0.68;;;;;;;5.06;74.00;100435.06;2019277;80;20082;-75
2022/01/20 12:37:36;;;;;;;1.94;0.52;;;;;;;5.09;72.45;100430.00;2021775;80;20312;-75
2022/01/20 12:40:43;;;;;;;5.26;0.60;;;;;;;5.16;72.50;100439.69;2022390;80;20389;-75
2022/01/20 12:43:50;;;;;;;1.34;0.59;;;;;;;5.13;72.66;100426.69;2022538;80;20341;-75
2022/01/20 12:46:53;;;;;;;2.03;0.40;;;;;;;5.18;73.27;100417.44;2017817;78;22959;-75
2022/01/20 12:49:58;;;;;;;1.83;0.73;;;;;;;5.15;73.79;100423.34;2017317;80;20309;-76
2022/01/20 12:53:00;;;;;;;7.88;1.10;;;;;;;5.16;73.18;100435.41;2016885;80;20357;-76
2022/01/20 12:56:05;;;;;;;6.85;1.00;;;;;;;5.17;72.59;100431.13;2017432;80;20414;-75
2022/01/20 12:59:08;;;;;;;6.53;0.71;;;;;;;5.22;73.62;100429.59;2017138;80;20424;-75
2022/01/20 13:02:33;;;;;;;2.36;0.68;;;;;;;5.24;73.36;100434.81;2016158;77;28657;-75
2022/01/20 13:05:41;;;;;;;5.99;1.16;;;;;;;5.28;71.39;100440.09;2017690;80;20342;-75
2022/01/20 13:08:43;;;;;;;5.78;1.61;;;;;;;5.39;71.86;100443.91;2017410;80;20329;-75
2022/01/20 13:11:57;;;;;;;3.65;0.60;;;;;;;5.40;68.04;100430.22;2017849;80;20329;-75
2022/01/20 13:15:00;;;;;;;2.69;0.40;;;;;;;5.43;66.16;100432.00;2017686;80;20348;-75
2022/01/20 13:18:08;;;;;;;2.99;0.80;;;;;;;5.46;67.01;100434.69;2016920;78;45748;-74
2022/01/20 13:21:12;;;;;;;5.93;0.94;;;;;;;5.49;67.82;100424.47;2016116;80;20409;-74
2022/01/20 13:24:25;;;;;;;1.39;0.38;;;;;;;5.48;65.87;100415.00;2016742;80;20985;-74
2022/01/20 13:27:28;;;;;;;2.19;0.70;;;;;;;5.54;67.54;100411.72;2016484;80;20317;-74
2022/01/20 13:30:47;;;;;;;3.45;0.80;;;;;;;5.57;65.42;100417.00;2014681;77;21339;-74
2022/01/20 13:33:50;;;;;;;4.46;0.66;;;;;;;5.68;66.70;100420.78;2021934;80;20374;-74
2022/01/20 13:36:54;;;;;;;3.80;0.77;;;;;;;5.82;66.73;100414.38;2017200;80;20414;-74
2022/01/20 13:40:00;;;;;;;3.75;0.75;;;;;;;5.88;63.32;100399.09;2021401;80;20422;-75
2022/01/20 13:46:20;;;;;;;2.97;0.69;;;;;;;5.73;62.47;100409.78;2020233;78;25061;-74
2022/01/20 13:49:23;;;;;;;3.69;0.68;;;;;;;5.60;60.95;100401.66;2021483;80;20328;-75
2022/01/20 13:52:28;;;;;;;4.13;0.85;;;;;;;5.55;61.53;100416.94;2022481;80;20729;-74
2022/01/20 13:55:36;;;;;;;6.82;0.86;;;;;;;5.52;61.85;100416.84;2021938;80;20744;-73
2022/01/20 13:58:39;;;;;;;5.98;0.77;;;;;;;5.51;62.25;100422.81;2021747;80;20316;-73
2022/01/20 14:01:41;;;;;;;1.77;0.40;;;;;;;5.46;61.36;100419.22;2017560;77;22977;-73
2022/01/20 14:04:44;;;;;;;3.72;0.60;;;;;;;5.47;61.51;100414.13;2015930;80;20351;-72
2022/01/20 14:07:47;;;;;;;2.61;0.50;;;;;;;5.39;60.96;100435.31;2015782;80;20333;-72
2022/01/20 14:10:51;;;;;;;5.51;0.60;;;;;;;5.36;62.73;100443.78;2012263;80;20321;-72
2022/01/20 14:13:56;;;;;;;2.05;0.81;;;;;;;5.31;62.71;100442.78;2017277;80;20329;-73
2022/01/20 14:17:06;;;;;;;3.51;0.90;;;;;;;5.30;62.47;100463.31;2014419;78;23714;-72
2022/01/20 14:20:11;;;;;;;5.22;0.71;;;;;;;5.23;61.38;100472.56;2016102;80;20796;-73
2022/01/20 14:23:15;;;;;;;6.41;0.73;;;;;;;5.16;62.57;100468.00;2015899;80;20333;-74
2022/01/20 14:26:27;;;;;;;4.18;0.61;;;;;;;5.14;63.79;100475.66;2016820;80;21113;-74
2022/01/20 14:29:30;;;;;;;4.46;0.80;;;;;;;5.10;64.34;100478.97;2015478;80;20420;-75
2022/01/20 14:32:33;;;;;;;4.68;1.16;;;;;;;5.06;64.83;100478.81;2015166;77;22055;-74
2022/01/20 14:35:35;;;;;;;2.42;0.54;;;;;;;5.01;63.79;100482.91;2016232;80;20336;-74
2022/01/20 14:38:53;;;;;;;3.56;1.14;;;;;;;4.98;64.46;100480.22;2017023;80;20825;-74
2022/01/20 14:41:56;;;;;;;3.59;0.85;;;;;;;4.98;65.42;100493.09;2017202;80;20301;-74
2022/01/20 14:44:59;;;;;;;5.14;0.60;;;;;;;4.98;64.89;100488.81;2016908;80;20824;-74
2022/01/20 14:48:02;;;;;;;4.04;0.84;;;;;;;4.96;65.43;100484.44;2014268;78;66337;-74
2022/01/20 14:51:08;;;;;;;5.19;1.42;;;;;;;4.99;65.32;100488.00;2016642;80;20402;-74
2022/01/20 14:54:11;;;;;;;2.01;0.64;;;;;;;5.01;65.08;100498.34;2016313;80;20444;-74
2022/01/20 14:57:13;;;;;;;2.70;0.80;;;;;;;4.94;65.43;100483.50;2016361;80;20826;-74
2022/01/20 15:00:18;;;;;;;7.95;0.95;;;;;;;4.87;64.60;100485.00;2015264;80;20770;-73
2022/01/20 15:03:21;;;;;;;3.90;1.11;;;;;;;4.80;64.61;100493.31;2020876;80;20366;-73
2022/01/20 15:06:24;;;;;;;5.65;0.90;;;;;;;4.77;65.93;100496.66;2021534;80;20320;-74
2022/01/20 15:09:26;;;;;;;6.59;0.85;;;;;;;4.72;66.18;100487.91;2022200;80;21264;-73
2022/01/20 15:12:29;;;;;;;2.76;0.60;;;;;;;4.64;65.56;100489.28;2021430;80;20363;-73
2022/01/20 15:15:33;;;;;;;4.44;0.81;;;;;;;4.58;67.01;100491.66;2019341;77;38189;-73
2022/01/20 15:18:35;;;;;;;2.54;0.84;;;;;;;4.53;65.28;100493.19;2021337;80;21010;-73
2022/01/20 15:21:38;;;;;;;5.66;0.80;;;;;;;4.50;66.43;100501.66;2021153;80;20311;-73